sensor_id;sensor_type;location;lat;lon;timestamp;temperature;humidity
563;DHT22;266;49.514;8.294;2022-10-17T00:00:13;14.20;99.90
563;DHT22;266;49.514;8.294;2022-10-17T00:02:41;14.20;99.90
563;DHT22;266;49.514;8.294;2022-10-17T00:05:12;14.20;99.90
563;DHT22;266;49.514;8.294;2022-10-17T00:07:41;14.20;99.90
563;DHT22;266;49.514;8.294;2022-10-17T00:10:12;14.30;99.90
563;DHT22;266;49.514;8.294;2022-10-17T00:12:41;14.30;99.90
563;DHT22;266;49.514;8.294;2022-10-17T00:15:15;14.40;99.90
563;DHT22;266;49.514;8.294;2022-10-17T00:17:44;14.40;99.90
563;DHT22;266;49.514;8.294;2022-10-17T00:20:16;14.40;99.90
563;DHT22;266;49.514;8.294;2022-10-17T00:22:44;14.30;99.90
563;DHT22;266;49.514;8.294;2022-10-17T00:25:15;14.20;99.90
563;DHT22;266;49.514;8.294;2022-10-17T00:27:44;14.20;99.90
563;DHT22;266;49.514;8.294;2022-10-17T00:30:14;14.10;99.90
563;DHT22;266;49.514;8.294;2022-10-17T00:32:42;14.10;99.90
563;DHT22;266;49.514;8.294;2022-10-17T00:35:12;14.00;99.90
563;DHT22;266;49.514;8.294;2022-10-17T00:37:43;14.00;99.90
563;DHT22;266;49.514;8.294;2022-10-17T00:40:16;14.00;99.90
563;DHT22;266;49.514;8.294;2022-10-17T00:42:46;14.00;99.90
563;DHT22;266;49.514;8.294;2022-10-17T00:45:20;14.00;99.90
563;DHT22;266;49.514;8.294;2022-10-17T00:47:53;14.00;99.90
563;DHT22;266;49.514;8.294;2022-10-17T00:50:24;14.00;99.90
563;DHT22;266;49.514;8.294;2022-10-17T00:52:52;13.90;99.90
563;DHT22;266;49.514;8.294;2022-10-17T00:55:26;13.90;99.90
563;DHT22;266;49.514;8.294;2022-10-17T00:57:55;13.70;99.90
563;DHT22;266;49.514;8.294;2022-10-17T01:00:26;13.70;99.90
563;DHT22;266;49.514;8.294;2022-10-17T01:02:57;13.60;99.90
563;DHT22;266;49.514;8.294;2022-10-17T01:05:26;13.70;99.90
563;DHT22;266;49.514;8.294;2022-10-17T01:07:55;13.70;99.90
563;DHT22;266;49.514;8.294;2022-10-17T01:10:32;13.70;99.90
563;DHT22;266;49.514;8.294;2022-10-17T01:13:07;13.70;99.90
563;DHT22;266;49.514;8.294;2022-10-17T01:15:50;13.70;99.90
563;DHT22;266;49.514;8.294;2022-10-17T01:18:28;13.70;99.90
563;DHT22;266;49.514;8.294;2022-10-17T01:30:48;13.50;99.90
563;DHT22;266;49.514;8.294;2022-10-17T01:33:41;13.50;99.90
563;DHT22;266;49.514;8.294;2022-10-17T01:36:23;13.50;99.90
563;DHT22;266;49.514;8.294;2022-10-17T01:38:59;13.40;99.90
563;DHT22;266;49.514;8.294;2022-10-17T01:41:36;13.30;99.90
563;DHT22;266;49.514;8.294;2022-10-17T01:44:09;13.20;99.90
563;DHT22;266;49.514;8.294;2022-10-17T01:46:43;13.20;99.90
563;DHT22;266;49.514;8.294;2022-10-17T01:49:20;13.20;99.90
563;DHT22;266;49.514;8.294;2022-10-17T01:51:54;13.20;99.90
563;DHT22;266;49.514;8.294;2022-10-17T01:54:25;13.20;99.90
563;DHT22;266;49.514;8.294;2022-10-17T01:56:57;13.20;99.90
563;DHT22;266;49.514;8.294;2022-10-17T01:59:30;13.20;99.90
563;DHT22;266;49.514;8.294;2022-10-17T02:02:03;13.10;99.90
563;DHT22;266;49.514;8.294;2022-10-17T02:04:36;13.10;99.90
563;DHT22;266;49.514;8.294;2022-10-17T02:07:08;13.10;99.90
563;DHT22;266;49.514;8.294;2022-10-17T02:09:38;13.00;99.90
563;DHT22;266;49.514;8.294;2022-10-17T02:12:44;13.00;99.90
563;DHT22;266;49.514;8.294;2022-10-17T02:15:41;13.00;99.90
563;DHT22;266;49.514;8.294;2022-10-17T02:18:24;13.00;99.90
563;DHT22;266;49.514;8.294;2022-10-17T02:21:03;13.10;99.90
563;DHT22;266;49.514;8.294;2022-10-17T02:23:40;13.40;99.90
563;DHT22;266;49.514;8.294;2022-10-17T02:26:20;13.70;99.90
563;DHT22;266;49.514;8.294;2022-10-17T02:29:02;13.90;99.90
563;DHT22;266;49.514;8.294;2022-10-17T02:31:38;13.90;99.90
563;DHT22;266;49.514;8.294;2022-10-17T02:34:16;13.90;99.90
563;DHT22;266;49.514;8.294;2022-10-17T02:36:51;13.90;99.90
563;DHT22;266;49.514;8.294;2022-10-17T02:39:24;13.90;99.90
563;DHT22;266;49.514;8.294;2022-10-17T02:41:58;13.80;99.90
563;DHT22;266;49.514;8.294;2022-10-17T02:44:27;13.80;99.90
563;DHT22;266;49.514;8.294;2022-10-17T02:47:03;13.90;99.90
563;DHT22;266;49.514;8.294;2022-10-17T02:49:42;13.90;99.90
563;DHT22;266;49.514;8.294;2022-10-17T02:52:15;13.90;99.90
563;DHT22;266;49.514;8.294;2022-10-17T02:54:50;14.00;99.90
563;DHT22;266;49.514;8.294;2022-10-17T02:57:24;14.00;99.90
563;DHT22;266;49.514;8.294;2022-10-17T02:59:55;14.00;99.90
563;DHT22;266;49.514;8.294;2022-10-17T03:02:25;14.10;99.90
563;DHT22;266;49.514;8.294;2022-10-17T03:04:58;14.10;99.90
563;DHT22;266;49.514;8.294;2022-10-17T03:07:29;14.10;99.90
563;DHT22;266;49.514;8.294;2022-10-17T03:10:00;14.00;99.90
563;DHT22;266;49.514;8.294;2022-10-17T03:12:30;14.10;99.90
563;DHT22;266;49.514;8.294;2022-10-17T03:14:58;14.10;99.90
563;DHT22;266;49.514;8.294;2022-10-17T03:17:30;14.10;99.90
563;DHT22;266;49.514;8.294;2022-10-17T03:20:00;14.10;99.90
563;DHT22;266;49.514;8.294;2022-10-17T03:22:32;14.20;99.90
563;DHT22;266;49.514;8.294;2022-10-17T03:25:02;14.30;99.90
563;DHT22;266;49.514;8.294;2022-10-17T03:27:32;14.30;99.90
563;DHT22;266;49.514;8.294;2022-10-17T03:30:01;14.30;99.90
563;DHT22;266;49.514;8.294;2022-10-17T03:32:32;14.40;99.90
563;DHT22;266;49.514;8.294;2022-10-17T03:35:04;14.30;99.90
563;DHT22;266;49.514;8.294;2022-10-17T03:37:35;14.40;99.90
563;DHT22;266;49.514;8.294;2022-10-17T03:40:05;14.40;99.90
563;DHT22;266;49.514;8.294;2022-10-17T03:42:34;14.40;99.90
563;DHT22;266;49.514;8.294;2022-10-17T03:45:04;14.40;99.90
563;DHT22;266;49.514;8.294;2022-10-17T03:47:34;14.40;99.90
563;DHT22;266;49.514;8.294;2022-10-17T03:50:07;14.40;99.90
563;DHT22;266;49.514;8.294;2022-10-17T03:52:37;14.40;99.90
563;DHT22;266;49.514;8.294;2022-10-17T03:55:06;14.40;99.90
563;DHT22;266;49.514;8.294;2022-10-17T03:57:34;14.40;99.90
563;DHT22;266;49.514;8.294;2022-10-17T04:00:11;14.40;99.90
563;DHT22;266;49.514;8.294;2022-10-17T04:02:43;14.40;99.90
563;DHT22;266;49.514;8.294;2022-10-17T04:05:14;14.40;99.90
563;DHT22;266;49.514;8.294;2022-10-17T04:07:41;14.40;99.90
563;DHT22;266;49.514;8.294;2022-10-17T04:10:11;14.40;99.90
563;DHT22;266;49.514;8.294;2022-10-17T04:12:39;14.40;99.90
563;DHT22;266;49.514;8.294;2022-10-17T04:15:09;14.50;99.90
563;DHT22;266;49.514;8.294;2022-10-17T04:17:39;14.50;99.90
563;DHT22;266;49.514;8.294;2022-10-17T04:20:08;14.50;99.90
563;DHT22;266;49.514;8.294;2022-10-17T04:22:38;14.40;99.90
563;DHT22;266;49.514;8.294;2022-10-17T04:25:08;14.40;99.90
563;DHT22;266;49.514;8.294;2022-10-17T04:27:37;14.40;99.90
563;DHT22;266;49.514;8.294;2022-10-17T04:30:07;14.30;99.90
563;DHT22;266;49.514;8.294;2022-10-17T04:32:36;14.30;99.90
563;DHT22;266;49.514;8.294;2022-10-17T04:35:05;14.30;99.90
563;DHT22;266;49.514;8.294;2022-10-17T04:37:41;14.30;99.90
563;DHT22;266;49.514;8.294;2022-10-17T04:40:11;14.30;99.90
563;DHT22;266;49.514;8.294;2022-10-17T04:42:39;14.20;99.90
563;DHT22;266;49.514;8.294;2022-10-17T04:45:11;14.20;99.90
563;DHT22;266;49.514;8.294;2022-10-17T04:47:41;14.20;99.90
563;DHT22;266;49.514;8.294;2022-10-17T04:50:11;14.20;99.90
563;DHT22;266;49.514;8.294;2022-10-17T04:52:40;14.20;99.90
563;DHT22;266;49.514;8.294;2022-10-17T04:55:08;14.20;99.90
563;DHT22;266;49.514;8.294;2022-10-17T04:57:36;14.10;99.90
563;DHT22;266;49.514;8.294;2022-10-17T05:00:07;14.10;99.90
563;DHT22;266;49.514;8.294;2022-10-17T05:02:40;14.00;99.90
563;DHT22;266;49.514;8.294;2022-10-17T05:05:09;14.10;99.90
563;DHT22;266;49.514;8.294;2022-10-17T05:07:42;14.10;99.90
563;DHT22;266;49.514;8.294;2022-10-17T05:10:11;14.20;99.90
563;DHT22;266;49.514;8.294;2022-10-17T05:12:40;14.20;99.90
563;DHT22;266;49.514;8.294;2022-10-17T05:15:10;14.10;99.90
563;DHT22;266;49.514;8.294;2022-10-17T05:17:39;14.10;99.90
563;DHT22;266;49.514;8.294;2022-10-17T05:20:09;14.10;99.90
563;DHT22;266;49.514;8.294;2022-10-17T05:22:45;14.10;99.90
563;DHT22;266;49.514;8.294;2022-10-17T05:25:17;14.10;99.90
563;DHT22;266;49.514;8.294;2022-10-17T05:27:47;14.10;99.90
563;DHT22;266;49.514;8.294;2022-10-17T05:30:18;13.90;99.90
563;DHT22;266;49.514;8.294;2022-10-17T05:32:52;13.90;99.90
563;DHT22;266;49.514;8.294;2022-10-17T05:35:21;13.90;99.90
563;DHT22;266;49.514;8.294;2022-10-17T05:37:53;13.90;99.90
563;DHT22;266;49.514;8.294;2022-10-17T05:40:22;13.90;99.90
563;DHT22;266;49.514;8.294;2022-10-17T05:42:50;14.00;99.90
563;DHT22;266;49.514;8.294;2022-10-17T05:45:20;14.00;99.90
563;DHT22;266;49.514;8.294;2022-10-17T05:47:49;14.00;99.90
563;DHT22;266;49.514;8.294;2022-10-17T05:50:20;14.00;99.90
563;DHT22;266;49.514;8.294;2022-10-17T05:52:53;14.00;99.90
563;DHT22;266;49.514;8.294;2022-10-17T05:55:25;14.00;99.90
563;DHT22;266;49.514;8.294;2022-10-17T05:57:54;13.90;99.90
563;DHT22;266;49.514;8.294;2022-10-17T06:00:25;13.90;99.90
563;DHT22;266;49.514;8.294;2022-10-17T06:02:53;13.90;99.90
563;DHT22;266;49.514;8.294;2022-10-17T06:05:24;13.90;99.90
563;DHT22;266;49.514;8.294;2022-10-17T06:07:53;13.90;99.90
563;DHT22;266;49.514;8.294;2022-10-17T06:10:26;14.00;99.90
563;DHT22;266;49.514;8.294;2022-10-17T06:12:55;14.20;99.90
563;DHT22;266;49.514;8.294;2022-10-17T06:15:24;14.20;99.90
563;DHT22;266;49.514;8.294;2022-10-17T06:17:52;14.20;99.90
563;DHT22;266;49.514;8.294;2022-10-17T06:20:20;14.30;99.90
563;DHT22;266;49.514;8.294;2022-10-17T06:22:48;14.30;99.90
563;DHT22;266;49.514;8.294;2022-10-17T06:25:20;14.30;99.90
563;DHT22;266;49.514;8.294;2022-10-17T06:27:48;14.30;99.90
563;DHT22;266;49.514;8.294;2022-10-17T06:30:16;14.40;99.90
563;DHT22;266;49.514;8.294;2022-10-17T06:32:45;14.40;99.90
563;DHT22;266;49.514;8.294;2022-10-17T06:35:14;14.40;99.90
563;DHT22;266;49.514;8.294;2022-10-17T06:37:42;14.50;99.90
563;DHT22;266;49.514;8.294;2022-10-17T06:40:11;14.50;99.90
563;DHT22;266;49.514;8.294;2022-10-17T06:42:44;14.50;99.90
563;DHT22;266;49.514;8.294;2022-10-17T06:45:12;14.60;99.90
563;DHT22;266;49.514;8.294;2022-10-17T06:47:40;14.60;99.90
563;DHT22;266;49.514;8.294;2022-10-17T06:50:18;14.60;99.90
563;DHT22;266;49.514;8.294;2022-10-17T06:52:50;14.70;99.90
563;DHT22;266;49.514;8.294;2022-10-17T06:55:18;14.70;99.90
563;DHT22;266;49.514;8.294;2022-10-17T06:57:50;14.80;99.90
563;DHT22;266;49.514;8.294;2022-10-17T07:00:22;14.80;99.90
563;DHT22;266;49.514;8.294;2022-10-17T07:02:51;14.90;99.90
563;DHT22;266;49.514;8.294;2022-10-17T07:05:19;14.90;99.90
563;DHT22;266;49.514;8.294;2022-10-17T07:07:48;14.90;99.90
563;DHT22;266;49.514;8.294;2022-10-17T07:10:20;15.00;99.90
563;DHT22;266;49.514;8.294;2022-10-17T07:12:50;15.00;99.90
563;DHT22;266;49.514;8.294;2022-10-17T07:15:19;15.20;99.90
563;DHT22;266;49.514;8.294;2022-10-17T07:17:47;15.20;99.90
563;DHT22;266;49.514;8.294;2022-10-17T07:20:17;15.30;99.90
563;DHT22;266;49.514;8.294;2022-10-17T07:22:45;15.40;99.90
563;DHT22;266;49.514;8.294;2022-10-17T07:25:15;15.50;99.90
563;DHT22;266;49.514;8.294;2022-10-17T07:27:47;15.60;99.90
563;DHT22;266;49.514;8.294;2022-10-17T07:30:18;15.70;99.90
563;DHT22;266;49.514;8.294;2022-10-17T07:32:47;15.70;99.90
563;DHT22;266;49.514;8.294;2022-10-17T07:35:19;15.80;99.90
563;DHT22;266;49.514;8.294;2022-10-17T07:37:47;15.90;99.90
563;DHT22;266;49.514;8.294;2022-10-17T07:40:17;15.90;99.90
563;DHT22;266;49.514;8.294;2022-10-17T07:42:45;16.00;99.90
563;DHT22;266;49.514;8.294;2022-10-17T07:45:13;16.00;99.90
563;DHT22;266;49.514;8.294;2022-10-17T07:47:47;16.10;99.90
563;DHT22;266;49.514;8.294;2022-10-17T07:50:15;16.20;99.90
563;DHT22;266;49.514;8.294;2022-10-17T07:52:45;16.30;99.90
563;DHT22;266;49.514;8.294;2022-10-17T07:55:15;16.50;99.90
563;DHT22;266;49.514;8.294;2022-10-17T07:57:44;16.70;99.90
563;DHT22;266;49.514;8.294;2022-10-17T08:00:12;16.90;99.90
563;DHT22;266;49.514;8.294;2022-10-17T08:02:44;17.10;99.90
563;DHT22;266;49.514;8.294;2022-10-17T08:05:14;17.20;99.90
563;DHT22;266;49.514;8.294;2022-10-17T08:07:44;17.40;99.90
563;DHT22;266;49.514;8.294;2022-10-17T08:10:14;17.60;99.90
563;DHT22;266;49.514;8.294;2022-10-17T08:12:42;17.70;99.90
563;DHT22;266;49.514;8.294;2022-10-17T08:15:13;17.80;99.90
563;DHT22;266;49.514;8.294;2022-10-17T08:17:43;18.00;99.90
563;DHT22;266;49.514;8.294;2022-10-17T08:20:12;18.10;99.90
563;DHT22;266;49.514;8.294;2022-10-17T08:22:49;18.30;99.90
563;DHT22;266;49.514;8.294;2022-10-17T08:25:19;18.40;99.90
563;DHT22;266;49.514;8.294;2022-10-17T08:27:48;18.50;99.90
563;DHT22;266;49.514;8.294;2022-10-17T08:30:18;18.40;99.90
563;DHT22;266;49.514;8.294;2022-10-17T08:32:50;18.30;99.90
563;DHT22;266;49.514;8.294;2022-10-17T08:35:19;18.20;99.90
563;DHT22;266;49.514;8.294;2022-10-17T08:37:48;18.20;99.90
563;DHT22;266;49.514;8.294;2022-10-17T08:40:20;18.30;99.90
563;DHT22;266;49.514;8.294;2022-10-17T08:45:47;18.40;99.90
563;DHT22;266;49.514;8.294;2022-10-17T08:48:22;18.40;99.90
563;DHT22;266;49.514;8.294;2022-10-17T08:50:56;18.40;99.90
563;DHT22;266;49.514;8.294;2022-10-17T08:53:30;18.40;99.90
563;DHT22;266;49.514;8.294;2022-10-17T08:56:06;18.50;99.90
563;DHT22;266;49.514;8.294;2022-10-17T08:58:50;18.50;99.90
563;DHT22;266;49.514;8.294;2022-10-17T09:01:31;18.60;99.90
563;DHT22;266;49.514;8.294;2022-10-17T09:04:24;18.70;99.90
563;DHT22;266;49.514;8.294;2022-10-17T09:07:11;18.50;99.90
563;DHT22;266;49.514;8.294;2022-10-17T09:09:48;18.70;99.90
563;DHT22;266;49.514;8.294;2022-10-17T09:12:22;18.80;99.90
563;DHT22;266;49.514;8.294;2022-10-17T09:15:05;18.90;99.90
563;DHT22;266;49.514;8.294;2022-10-17T09:17:46;18.80;99.90
563;DHT22;266;49.514;8.294;2022-10-17T09:20:20;18.80;99.90
563;DHT22;266;49.514;8.294;2022-10-17T09:22:56;18.80;99.90
563;DHT22;266;49.514;8.294;2022-10-17T09:25:27;18.80;99.90
563;DHT22;266;49.514;8.294;2022-10-17T09:28:09;18.80;99.90
563;DHT22;266;49.514;8.294;2022-10-17T09:30:42;18.90;99.90
563;DHT22;266;49.514;8.294;2022-10-17T09:33:14;19.10;99.90
563;DHT22;266;49.514;8.294;2022-10-17T09:36:09;19.20;99.90
563;DHT22;266;49.514;8.294;2022-10-17T09:38:42;19.50;99.90
563;DHT22;266;49.514;8.294;2022-10-17T09:41:21;19.70;99.90
563;DHT22;266;49.514;8.294;2022-10-17T09:44:20;20.00;99.90
563;DHT22;266;49.514;8.294;2022-10-17T09:47:00;20.20;99.90
563;DHT22;266;49.514;8.294;2022-10-17T09:49:31;20.10;99.90
563;DHT22;266;49.514;8.294;2022-10-17T09:52:00;20.00;99.90
563;DHT22;266;49.514;8.294;2022-10-17T09:54:41;19.90;99.90
563;DHT22;266;49.514;8.294;2022-10-17T09:57:11;19.90;99.90
563;DHT22;266;49.514;8.294;2022-10-17T09:59:41;20.00;99.90
563;DHT22;266;49.514;8.294;2022-10-17T10:02:21;20.10;99.90
563;DHT22;266;49.514;8.294;2022-10-17T10:04:54;20.20;99.90
563;DHT22;266;49.514;8.294;2022-10-17T10:07:34;20.30;99.90
563;DHT22;266;49.514;8.294;2022-10-17T10:10:07;20.40;99.90
563;DHT22;266;49.514;8.294;2022-10-17T10:13:03;20.50;99.90
563;DHT22;266;49.514;8.294;2022-10-17T10:15:36;20.50;99.90
563;DHT22;266;49.514;8.294;2022-10-17T10:18:27;20.60;99.90
563;DHT22;266;49.514;8.294;2022-10-17T10:21:08;20.70;99.90
563;DHT22;266;49.514;8.294;2022-10-17T10:23:37;20.80;99.90
563;DHT22;266;49.514;8.294;2022-10-17T10:26:19;20.80;99.90
563;DHT22;266;49.514;8.294;2022-10-17T10:28:56;20.80;99.90
563;DHT22;266;49.514;8.294;2022-10-17T10:31:31;20.90;99.90
563;DHT22;266;49.514;8.294;2022-10-17T10:34:03;21.00;99.90
563;DHT22;266;49.514;8.294;2022-10-17T10:36:44;21.10;99.90
563;DHT22;266;49.514;8.294;2022-10-17T10:39:36;21.30;99.90
563;DHT22;266;49.514;8.294;2022-10-17T10:42:23;21.40;99.90
563;DHT22;266;49.514;8.294;2022-10-17T10:45:00;21.50;99.90
563;DHT22;266;49.514;8.294;2022-10-17T10:47:29;21.50;99.90
563;DHT22;266;49.514;8.294;2022-10-17T10:50:23;21.60;99.90
563;DHT22;266;49.514;8.294;2022-10-17T10:53:20;21.80;99.90
563;DHT22;266;49.514;8.294;2022-10-17T10:55:58;21.90;99.90
563;DHT22;266;49.514;8.294;2022-10-17T10:58:48;22.00;99.90
563;DHT22;266;49.514;8.294;2022-10-17T11:01:28;22.30;99.90
563;DHT22;266;49.514;8.294;2022-10-17T11:04:08;22.40;99.90
563;DHT22;266;49.514;8.294;2022-10-17T11:06:43;22.50;99.90
563;DHT22;266;49.514;8.294;2022-10-17T11:09:20;22.50;99.90
563;DHT22;266;49.514;8.294;2022-10-17T11:11:58;22.50;99.90
563;DHT22;266;49.514;8.294;2022-10-17T11:14:38;22.70;99.90
563;DHT22;266;49.514;8.294;2022-10-17T11:17:16;22.70;99.90
563;DHT22;266;49.514;8.294;2022-10-17T11:19:51;22.80;99.90
563;DHT22;266;49.514;8.294;2022-10-17T11:22:28;22.90;99.90
563;DHT22;266;49.514;8.294;2022-10-17T11:25:02;23.00;99.90
563;DHT22;266;49.514;8.294;2022-10-17T11:27:31;23.00;99.90
563;DHT22;266;49.514;8.294;2022-10-17T11:30:11;23.10;99.90
563;DHT22;266;49.514;8.294;2022-10-17T11:32:44;23.20;99.90
563;DHT22;266;49.514;8.294;2022-10-17T11:35:19;23.40;99.90
563;DHT22;266;49.514;8.294;2022-10-17T11:37:52;23.50;99.90
563;DHT22;266;49.514;8.294;2022-10-17T11:40:30;23.70;99.90
563;DHT22;266;49.514;8.294;2022-10-17T11:43:05;23.80;99.90
563;DHT22;266;49.514;8.294;2022-10-17T11:45:41;23.90;99.90
563;DHT22;266;49.514;8.294;2022-10-17T11:48:14;23.90;99.90
563;DHT22;266;49.514;8.294;2022-10-17T11:50:47;24.00;99.90
563;DHT22;266;49.514;8.294;2022-10-17T11:53:46;24.10;99.90
563;DHT22;266;49.514;8.294;2022-10-17T11:56:20;24.20;99.90
563;DHT22;266;49.514;8.294;2022-10-17T11:59:00;24.30;99.90
563;DHT22;266;49.514;8.294;2022-10-17T12:01:40;24.40;99.90
563;DHT22;266;49.514;8.294;2022-10-17T12:04:29;24.50;99.90
563;DHT22;266;49.514;8.294;2022-10-17T12:07:09;24.60;99.90
563;DHT22;266;49.514;8.294;2022-10-17T12:09:45;24.80;99.90
563;DHT22;266;49.514;8.294;2022-10-17T12:12:24;24.90;99.90
563;DHT22;266;49.514;8.294;2022-10-17T12:14:53;24.90;99.90
563;DHT22;266;49.514;8.294;2022-10-17T12:17:29;25.00;99.90
563;DHT22;266;49.514;8.294;2022-10-17T12:20:26;25.10;99.90
563;DHT22;266;49.514;8.294;2022-10-17T12:22:59;25.10;99.90
563;DHT22;266;49.514;8.294;2022-10-17T12:25:30;25.30;99.90
563;DHT22;266;49.514;8.294;2022-10-17T12:28:18;25.40;99.90
563;DHT22;266;49.514;8.294;2022-10-17T12:30:51;25.50;99.90
563;DHT22;266;49.514;8.294;2022-10-17T12:33:30;25.80;99.90
563;DHT22;266;49.514;8.294;2022-10-17T12:36:36;26.10;99.90
563;DHT22;266;49.514;8.294;2022-10-17T12:42:49;26.60;99.90
563;DHT22;266;49.514;8.294;2022-10-17T12:45:46;26.70;99.90
563;DHT22;266;49.514;8.294;2022-10-17T12:51:20;26.90;99.90
563;DHT22;266;49.514;8.294;2022-10-17T12:54:09;27.00;99.90
563;DHT22;266;49.514;8.294;2022-10-17T12:56:42;27.30;99.90
563;DHT22;266;49.514;8.294;2022-10-17T12:59:14;27.40;99.90
563;DHT22;266;49.514;8.294;2022-10-17T13:01:45;27.70;99.90
563;DHT22;266;49.514;8.294;2022-10-17T13:04:14;27.90;99.90
563;DHT22;266;49.514;8.294;2022-10-17T13:06:51;28.10;99.90
563;DHT22;266;49.514;8.294;2022-10-17T13:09:25;28.20;99.90
563;DHT22;266;49.514;8.294;2022-10-17T13:11:58;28.20;99.90
563;DHT22;266;49.514;8.294;2022-10-17T13:14:33;28.20;99.90
563;DHT22;266;49.514;8.294;2022-10-17T13:17:04;28.10;99.90
563;DHT22;266;49.514;8.294;2022-10-17T13:19:42;28.10;99.90
563;DHT22;266;49.514;8.294;2022-10-17T13:22:19;28.20;99.90
563;DHT22;266;49.514;8.294;2022-10-17T13:24:48;28.30;99.90
563;DHT22;266;49.514;8.294;2022-10-17T13:27:26;28.30;99.90
563;DHT22;266;49.514;8.294;2022-10-17T13:29:59;28.20;99.90
563;DHT22;266;49.514;8.294;2022-10-17T13:32:36;28.10;99.90
563;DHT22;266;49.514;8.294;2022-10-17T13:35:08;27.90;99.90
563;DHT22;266;49.514;8.294;2022-10-17T13:37:41;27.70;99.90
563;DHT22;266;49.514;8.294;2022-10-17T13:40:15;27.60;99.90
563;DHT22;266;49.514;8.294;2022-10-17T13:43:04;27.60;99.90
563;DHT22;266;49.514;8.294;2022-10-17T13:45:43;27.50;99.90
563;DHT22;266;49.514;8.294;2022-10-17T13:48:17;27.50;99.90
563;DHT22;266;49.514;8.294;2022-10-17T13:50:50;27.50;99.90
563;DHT22;266;49.514;8.294;2022-10-17T13:53:33;27.50;99.90
563;DHT22;266;49.514;8.294;2022-10-17T13:56:04;27.40;99.90
563;DHT22;266;49.514;8.294;2022-10-17T13:58:53;27.30;99.90
563;DHT22;266;49.514;8.294;2022-10-17T14:01:26;27.10;99.90
563;DHT22;266;49.514;8.294;2022-10-17T14:03:58;27.10;99.90
563;DHT22;266;49.514;8.294;2022-10-17T14:06:40;27.00;99.90
563;DHT22;266;49.514;8.294;2022-10-17T14:09:21;26.80;99.90
563;DHT22;266;49.514;8.294;2022-10-17T14:11:58;26.80;99.90
563;DHT22;266;49.514;8.294;2022-10-17T14:14:28;26.40;99.90
563;DHT22;266;49.514;8.294;2022-10-17T14:17:24;26.30;99.90
563;DHT22;266;49.514;8.294;2022-10-17T14:19:58;26.10;99.90
563;DHT22;266;49.514;8.294;2022-10-17T14:22:49;25.90;99.90
563;DHT22;266;49.514;8.294;2022-10-17T14:25:39;25.70;99.90
563;DHT22;266;49.514;8.294;2022-10-17T14:28:14;25.60;99.90
563;DHT22;266;49.514;8.294;2022-10-17T14:30:48;25.40;99.90
563;DHT22;266;49.514;8.294;2022-10-17T14:33:27;25.40;99.90
563;DHT22;266;49.514;8.294;2022-10-17T14:35:57;25.10;99.90
563;DHT22;266;49.514;8.294;2022-10-17T14:38:28;25.00;99.90
563;DHT22;266;49.514;8.294;2022-10-17T14:41:00;24.90;99.90
563;DHT22;266;49.514;8.294;2022-10-17T14:43:54;24.80;99.90
563;DHT22;266;49.514;8.294;2022-10-17T14:46:26;24.70;99.90
563;DHT22;266;49.514;8.294;2022-10-17T14:48:56;24.60;99.90
563;DHT22;266;49.514;8.294;2022-10-17T14:51:24;24.50;99.90
563;DHT22;266;49.514;8.294;2022-10-17T14:54:04;24.50;99.90
563;DHT22;266;49.514;8.294;2022-10-17T14:56:51;24.40;99.90
563;DHT22;266;49.514;8.294;2022-10-17T14:59:19;24.40;99.90
563;DHT22;266;49.514;8.294;2022-10-17T15:02:11;24.40;99.90
563;DHT22;266;49.514;8.294;2022-10-17T15:04:39;24.40;99.90
563;DHT22;266;49.514;8.294;2022-10-17T15:07:12;24.50;99.90
563;DHT22;266;49.514;8.294;2022-10-17T15:09:46;24.50;99.90
563;DHT22;266;49.514;8.294;2022-10-17T15:12:17;24.40;99.90
563;DHT22;266;49.514;8.294;2022-10-17T15:14:46;24.30;99.90
563;DHT22;266;49.514;8.294;2022-10-17T15:17:16;24.40;99.90
563;DHT22;266;49.514;8.294;2022-10-17T15:19:46;24.30;99.90
563;DHT22;266;49.514;8.294;2022-10-17T15:22:16;24.20;99.90
563;DHT22;266;49.514;8.294;2022-10-17T15:24:45;24.20;99.90
563;DHT22;266;49.514;8.294;2022-10-17T15:27:19;24.20;99.90
563;DHT22;266;49.514;8.294;2022-10-17T15:29:49;24.10;99.90
563;DHT22;266;49.514;8.294;2022-10-17T15:32:18;24.10;99.90
563;DHT22;266;49.514;8.294;2022-10-17T15:34:47;24.00;99.90
563;DHT22;266;49.514;8.294;2022-10-17T15:37:19;24.00;99.90
563;DHT22;266;49.514;8.294;2022-10-17T15:39:51;23.90;99.90
563;DHT22;266;49.514;8.294;2022-10-17T15:42:25;23.90;99.90
563;DHT22;266;49.514;8.294;2022-10-17T15:44:54;23.90;99.90
563;DHT22;266;49.514;8.294;2022-10-17T15:47:27;23.70;99.90
563;DHT22;266;49.514;8.294;2022-10-17T15:50:00;23.50;99.90
563;DHT22;266;49.514;8.294;2022-10-17T15:52:29;23.40;99.90
563;DHT22;266;49.514;8.294;2022-10-17T15:54:59;23.30;99.90
563;DHT22;266;49.514;8.294;2022-10-17T15:57:34;23.20;99.90
563;DHT22;266;49.514;8.294;2022-10-17T16:00:05;23.00;99.90
563;DHT22;266;49.514;8.294;2022-10-17T16:02:34;22.90;99.90
563;DHT22;266;49.514;8.294;2022-10-17T16:05:07;22.80;99.90
563;DHT22;266;49.514;8.294;2022-10-17T16:07:38;22.60;99.90
563;DHT22;266;49.514;8.294;2022-10-17T16:10:09;22.50;99.90
563;DHT22;266;49.514;8.294;2022-10-17T16:12:41;22.40;99.90
563;DHT22;266;49.514;8.294;2022-10-17T16:15:14;22.20;99.90
563;DHT22;266;49.514;8.294;2022-10-17T16:17:45;22.10;99.90
563;DHT22;266;49.514;8.294;2022-10-17T16:20:13;22.00;99.90
563;DHT22;266;49.514;8.294;2022-10-17T16:22:43;21.80;99.90
563;DHT22;266;49.514;8.294;2022-10-17T16:25:17;21.70;99.90
563;DHT22;266;49.514;8.294;2022-10-17T16:27:48;21.60;99.90
563;DHT22;266;49.514;8.294;2022-10-17T16:30:21;21.40;99.90
563;DHT22;266;49.514;8.294;2022-10-17T16:32:50;21.30;99.90
563;DHT22;266;49.514;8.294;2022-10-17T16:35:22;21.30;99.90
563;DHT22;266;49.514;8.294;2022-10-17T16:37:51;21.10;99.90
563;DHT22;266;49.514;8.294;2022-10-17T16:40:22;20.90;99.90
563;DHT22;266;49.514;8.294;2022-10-17T16:42:52;20.80;99.90
563;DHT22;266;49.514;8.294;2022-10-17T16:45:23;20.70;99.90
563;DHT22;266;49.514;8.294;2022-10-17T16:47:55;20.60;99.90
563;DHT22;266;49.514;8.294;2022-10-17T16:50:23;20.50;99.90
563;DHT22;266;49.514;8.294;2022-10-17T16:52:52;20.40;99.90
563;DHT22;266;49.514;8.294;2022-10-17T16:55:23;20.40;99.90
563;DHT22;266;49.514;8.294;2022-10-17T16:57:55;20.30;99.90
563;DHT22;266;49.514;8.294;2022-10-17T17:00:25;20.40;99.90
563;DHT22;266;49.514;8.294;2022-10-17T17:02:57;20.30;99.90
563;DHT22;266;49.514;8.294;2022-10-17T17:05:28;20.30;99.90
563;DHT22;266;49.514;8.294;2022-10-17T17:07:58;20.30;99.90
563;DHT22;266;49.514;8.294;2022-10-17T17:10:26;20.30;99.90
563;DHT22;266;49.514;8.294;2022-10-17T17:12:56;20.30;99.90
563;DHT22;266;49.514;8.294;2022-10-17T17:15:24;20.20;99.90
563;DHT22;266;49.514;8.294;2022-10-17T17:17:54;20.20;99.90
563;DHT22;266;49.514;8.294;2022-10-17T17:20:24;20.10;99.90
563;DHT22;266;49.514;8.294;2022-10-17T17:22:52;20.00;99.90
563;DHT22;266;49.514;8.294;2022-10-17T17:25:22;20.00;99.90
563;DHT22;266;49.514;8.294;2022-10-17T17:27:51;19.90;99.90
563;DHT22;266;49.514;8.294;2022-10-17T17:30:22;19.80;99.90
563;DHT22;266;49.514;8.294;2022-10-17T17:32:54;19.80;99.90
563;DHT22;266;49.514;8.294;2022-10-17T17:35:28;19.80;99.90